METAR Data
IDs: Format: Raw Decoded Include TAF

Data at: 0039 UTC 24 Mar 2019

METAR for:GCLA (La Palma Arpt, --, CR)
Text:GCLA 240030Z AUTO 34008KT 9999 SCT039/// 17/09 Q1015
Temperature: 17.0°C ( 63°F)
Dewpoint: 9.0°C ( 48°F) [RH = 59%]
Pressure (altimeter):29.97 inches Hg (1015.0 mb)
Winds:from the NNW (340 degrees) at 9 MPH (8 knots; 4.1 m/s)
Visibility:6 or more sm (10+ km)
Ceiling:at least 12,000 feet AGL
Clouds: scattered clouds at 3900 feet AGL